sensor_id;sensor_type;location;lat;lon;timestamp;temperature;humidity
46458;DHT22;32155;54.076;12.092;2022-10-23T00:02:23;14.70;99.90
46458;DHT22;32155;54.076;12.092;2022-10-23T00:04:55;14.70;99.90
46458;DHT22;32155;54.076;12.092;2022-10-23T00:07:51;14.60;99.90
46458;DHT22;32155;54.076;12.092;2022-10-23T00:10:22;14.60;99.90
46458;DHT22;32155;54.076;12.092;2022-10-23T00:12:48;14.50;99.90
46458;DHT22;32155;54.076;12.092;2022-10-23T00:18:56;14.40;99.90
46458;DHT22;32155;54.076;12.092;2022-10-23T00:21:30;14.30;99.90
46458;DHT22;32155;54.076;12.092;2022-10-23T00:23:57;14.30;99.90
46458;DHT22;32155;54.076;12.092;2022-10-23T00:26:23;14.40;99.90
46458;DHT22;32155;54.076;12.092;2022-10-23T00:28:50;14.30;99.90
46458;DHT22;32155;54.076;12.092;2022-10-23T00:31:16;14.20;99.90
46458;DHT22;32155;54.076;12.092;2022-10-23T00:33:41;14.20;99.90
46458;DHT22;32155;54.076;12.092;2022-10-23T00:36:08;14.40;99.90
46458;DHT22;32155;54.076;12.092;2022-10-23T00:38:34;14.40;99.90
46458;DHT22;32155;54.076;12.092;2022-10-23T00:41:00;14.40;99.90
46458;DHT22;32155;54.076;12.092;2022-10-23T00:43:28;14.30;99.90
46458;DHT22;32155;54.076;12.092;2022-10-23T00:45:54;14.30;99.90
46458;DHT22;32155;54.076;12.092;2022-10-23T00:48:20;14.20;99.90
46458;DHT22;32155;54.076;12.092;2022-10-23T00:50:46;14.20;99.90
46458;DHT22;32155;54.076;12.092;2022-10-23T00:53:12;14.20;99.90
46458;DHT22;32155;54.076;12.092;2022-10-23T00:55:38;14.10;99.90
46458;DHT22;32155;54.076;12.092;2022-10-23T00:58:05;14.00;99.90
46458;DHT22;32155;54.076;12.092;2022-10-23T01:00:41;13.80;99.90
46458;DHT22;32155;54.076;12.092;2022-10-23T01:03:06;13.90;99.90
46458;DHT22;32155;54.076;12.092;2022-10-23T01:05:45;13.80;99.90
46458;DHT22;32155;54.076;12.092;2022-10-23T01:08:17;13.80;99.90
46458;DHT22;32155;54.076;12.092;2022-10-23T01:11:08;13.70;99.90
46458;DHT22;32155;54.076;12.092;2022-10-23T01:16:41;13.60;99.90
46458;DHT22;32155;54.076;12.092;2022-10-23T01:19:22;13.60;99.90
46458;DHT22;32155;54.076;12.092;2022-10-23T01:21:59;13.50;99.90
46458;DHT22;32155;54.076;12.092;2022-10-23T01:29:35;13.40;99.90
46458;DHT22;32155;54.076;12.092;2022-10-23T01:34:31;13.20;99.90
46458;DHT22;32155;54.076;12.092;2022-10-23T01:37:00;13.20;99.90
46458;DHT22;32155;54.076;12.092;2022-10-23T01:39:32;13.10;99.90
46458;DHT22;32155;54.076;12.092;2022-10-23T01:42:04;13.10;99.90
46458;DHT22;32155;54.076;12.092;2022-10-23T01:44:33;13.00;99.90
46458;DHT22;32155;54.076;12.092;2022-10-23T01:47:00;13.00;99.90
46458;DHT22;32155;54.076;12.092;2022-10-23T01:49:26;12.90;99.90
46458;DHT22;32155;54.076;12.092;2022-10-23T01:51:54;12.80;99.90
46458;DHT22;32155;54.076;12.092;2022-10-23T01:57:19;12.70;99.90
46458;DHT22;32155;54.076;12.092;2022-10-23T01:59:47;12.80;99.90
46458;DHT22;32155;54.076;12.092;2022-10-23T02:02:14;12.70;99.90
46458;DHT22;32155;54.076;12.092;2022-10-23T02:04:45;12.70;99.90
46458;DHT22;32155;54.076;12.092;2022-10-23T02:07:12;12.60;99.90
46458;DHT22;32155;54.076;12.092;2022-10-23T02:09:37;12.60;99.90
46458;DHT22;32155;54.076;12.092;2022-10-23T02:12:07;12.70;99.90
46458;DHT22;32155;54.076;12.092;2022-10-23T02:14:36;12.70;99.90
46458;DHT22;32155;54.076;12.092;2022-10-23T02:17:13;12.60;99.90
46458;DHT22;32155;54.076;12.092;2022-10-23T02:19:45;12.60;99.90
46458;DHT22;32155;54.076;12.092;2022-10-23T02:24:55;12.50;99.90
46458;DHT22;32155;54.076;12.092;2022-10-23T02:27:36;12.50;99.90
46458;DHT22;32155;54.076;12.092;2022-10-23T02:30:09;12.50;99.90
46458;DHT22;32155;54.076;12.092;2022-10-23T02:32:37;12.50;99.90
46458;DHT22;32155;54.076;12.092;2022-10-23T02:35:04;12.50;99.90
46458;DHT22;32155;54.076;12.092;2022-10-23T02:37:29;12.30;99.90
46458;DHT22;32155;54.076;12.092;2022-10-23T02:39:55;12.30;99.90
46458;DHT22;32155;54.076;12.092;2022-10-23T02:42:35;12.20;99.90
46458;DHT22;32155;54.076;12.092;2022-10-23T02:50:07;12.20;99.90
46458;DHT22;32155;54.076;12.092;2022-10-23T02:58:27;12.00;99.90
46458;DHT22;32155;54.076;12.092;2022-10-23T03:00:55;11.90;99.90
46458;DHT22;32155;54.076;12.092;2022-10-23T03:03:30;11.90;99.90
46458;DHT22;32155;54.076;12.092;2022-10-23T03:05:56;11.90;99.90
46458;DHT22;32155;54.076;12.092;2022-10-23T03:08:22;11.80;99.90
46458;DHT22;32155;54.076;12.092;2022-10-23T03:10:47;11.70;99.90
46458;DHT22;32155;54.076;12.092;2022-10-23T03:13:13;11.50;99.90
46458;DHT22;32155;54.076;12.092;2022-10-23T03:15:38;11.40;99.90
46458;DHT22;32155;54.076;12.092;2022-10-23T03:18:06;11.50;99.90
46458;DHT22;32155;54.076;12.092;2022-10-23T03:20:32;11.30;99.90
46458;DHT22;32155;54.076;12.092;2022-10-23T03:22:57;11.20;99.90
46458;DHT22;32155;54.076;12.092;2022-10-23T03:25:23;11.20;99.90
46458;DHT22;32155;54.076;12.092;2022-10-23T03:27:48;11.10;99.90
46458;DHT22;32155;54.076;12.092;2022-10-23T03:30:14;11.10;99.90
46458;DHT22;32155;54.076;12.092;2022-10-23T03:32:39;11.00;99.90
46458;DHT22;32155;54.076;12.092;2022-10-23T03:35:07;11.00;99.90
46458;DHT22;32155;54.076;12.092;2022-10-23T03:37:32;10.90;99.90
46458;DHT22;32155;54.076;12.092;2022-10-23T03:39:58;10.90;99.90
46458;DHT22;32155;54.076;12.092;2022-10-23T03:42:26;11.00;99.90
46458;DHT22;32155;54.076;12.092;2022-10-23T03:44:53;10.80;99.90
46458;DHT22;32155;54.076;12.092;2022-10-23T03:47:19;10.70;99.90
46458;DHT22;32155;54.076;12.092;2022-10-23T03:49:45;10.70;99.90
46458;DHT22;32155;54.076;12.092;2022-10-23T03:52:10;10.80;99.90
46458;DHT22;32155;54.076;12.092;2022-10-23T03:54:36;10.60;99.90
46458;DHT22;32155;54.076;12.092;2022-10-23T03:57:01;10.70;99.90
46458;DHT22;32155;54.076;12.092;2022-10-23T03:59:29;10.60;99.90
46458;DHT22;32155;54.076;12.092;2022-10-23T04:01:55;10.60;99.90
46458;DHT22;32155;54.076;12.092;2022-10-23T04:04:20;10.60;99.90
46458;DHT22;32155;54.076;12.092;2022-10-23T04:06:46;10.60;99.90
46458;DHT22;32155;54.076;12.092;2022-10-23T04:09:16;10.70;99.90
46458;DHT22;32155;54.076;12.092;2022-10-23T04:11:42;10.80;99.90
46458;DHT22;32155;54.076;12.092;2022-10-23T04:14:09;10.70;99.90
46458;DHT22;32155;54.076;12.092;2022-10-23T04:16:35;10.80;99.90
46458;DHT22;32155;54.076;12.092;2022-10-23T04:19:03;10.80;99.90
46458;DHT22;32155;54.076;12.092;2022-10-23T04:21:31;10.70;99.90
46458;DHT22;32155;54.076;12.092;2022-10-23T04:23:56;10.80;99.90
46458;DHT22;32155;54.076;12.092;2022-10-23T04:26:22;10.90;99.90
46458;DHT22;32155;54.076;12.092;2022-10-23T04:28:47;11.00;99.90
46458;DHT22;32155;54.076;12.092;2022-10-23T04:31:13;11.00;99.90
46458;DHT22;32155;54.076;12.092;2022-10-23T04:33:38;11.00;99.90
46458;DHT22;32155;54.076;12.092;2022-10-23T04:36:04;11.10;99.90
46458;DHT22;32155;54.076;12.092;2022-10-23T04:38:29;11.10;99.90
46458;DHT22;32155;54.076;12.092;2022-10-23T04:40:55;11.10;99.90
46458;DHT22;32155;54.076;12.092;2022-10-23T04:43:20;11.20;99.90
46458;DHT22;32155;54.076;12.092;2022-10-23T04:45:47;11.10;99.90
46458;DHT22;32155;54.076;12.092;2022-10-23T04:48:12;11.10;99.90
46458;DHT22;32155;54.076;12.092;2022-10-23T04:50:38;11.10;99.90
46458;DHT22;32155;54.076;12.092;2022-10-23T04:53:03;11.10;99.90
46458;DHT22;32155;54.076;12.092;2022-10-23T04:55:29;11.10;99.90
46458;DHT22;32155;54.076;12.092;2022-10-23T04:57:54;11.00;99.90
46458;DHT22;32155;54.076;12.092;2022-10-23T05:00:22;11.00;99.90
46458;DHT22;32155;54.076;12.092;2022-10-23T05:02:48;11.00;99.90
46458;DHT22;32155;54.076;12.092;2022-10-23T05:05:16;11.00;99.90
46458;DHT22;32155;54.076;12.092;2022-10-23T05:07:41;11.00;99.90
46458;DHT22;32155;54.076;12.092;2022-10-23T05:10:07;10.90;99.90
46458;DHT22;32155;54.076;12.092;2022-10-23T05:12:33;10.90;99.90
46458;DHT22;32155;54.076;12.092;2022-10-23T05:14:58;10.90;99.90
46458;DHT22;32155;54.076;12.092;2022-10-23T05:17:36;10.90;99.90
46458;DHT22;32155;54.076;12.092;2022-10-23T05:20:05;10.90;99.90
46458;DHT22;32155;54.076;12.092;2022-10-23T05:22:32;10.70;99.90
46458;DHT22;32155;54.076;12.092;2022-10-23T05:24:59;10.80;99.90
46458;DHT22;32155;54.076;12.092;2022-10-23T05:27:26;10.80;99.90
46458;DHT22;32155;54.076;12.092;2022-10-23T05:29:52;10.70;99.90
46458;DHT22;32155;54.076;12.092;2022-10-23T05:32:19;10.70;99.90
46458;DHT22;32155;54.076;12.092;2022-10-23T05:34:45;10.60;99.90
46458;DHT22;32155;54.076;12.092;2022-10-23T05:37:14;10.50;99.90
46458;DHT22;32155;54.076;12.092;2022-10-23T05:39:40;10.70;99.90
46458;DHT22;32155;54.076;12.092;2022-10-23T05:42:08;10.70;99.90
46458;DHT22;32155;54.076;12.092;2022-10-23T05:44:33;10.70;99.90
46458;DHT22;32155;54.076;12.092;2022-10-23T05:46:59;10.60;99.90
46458;DHT22;32155;54.076;12.092;2022-10-23T05:49:25;10.60;99.90
46458;DHT22;32155;54.076;12.092;2022-10-23T05:51:50;10.60;99.90
46458;DHT22;32155;54.076;12.092;2022-10-23T05:54:16;10.60;99.90
46458;DHT22;32155;54.076;12.092;2022-10-23T05:56:44;10.60;99.90
46458;DHT22;32155;54.076;12.092;2022-10-23T05:59:09;10.70;99.90
46458;DHT22;32155;54.076;12.092;2022-10-23T06:01:35;10.60;99.90
46458;DHT22;32155;54.076;12.092;2022-10-23T06:04:01;10.70;99.90
46458;DHT22;32155;54.076;12.092;2022-10-23T06:06:29;10.80;99.90
46458;DHT22;32155;54.076;12.092;2022-10-23T06:08:55;10.70;99.90
46458;DHT22;32155;54.076;12.092;2022-10-23T06:11:20;10.70;99.90
46458;DHT22;32155;54.076;12.092;2022-10-23T06:13:48;10.80;99.90
46458;DHT22;32155;54.076;12.092;2022-10-23T06:16:15;10.90;99.90
46458;DHT22;32155;54.076;12.092;2022-10-23T06:18:41;10.90;99.90
46458;DHT22;32155;54.076;12.092;2022-10-23T06:21:07;10.90;99.90
46458;DHT22;32155;54.076;12.092;2022-10-23T06:23:36;10.80;99.90
46458;DHT22;32155;54.076;12.092;2022-10-23T06:26:02;10.90;99.90
46458;DHT22;32155;54.076;12.092;2022-10-23T06:28:27;11.00;99.90
46458;DHT22;32155;54.076;12.092;2022-10-23T06:30:53;11.00;99.90
46458;DHT22;32155;54.076;12.092;2022-10-23T06:33:18;11.00;99.90
46458;DHT22;32155;54.076;12.092;2022-10-23T06:35:44;11.00;99.90
46458;DHT22;32155;54.076;12.092;2022-10-23T06:38:12;11.00;99.90
46458;DHT22;32155;54.076;12.092;2022-10-23T06:40:37;11.00;99.90
46458;DHT22;32155;54.076;12.092;2022-10-23T06:43:05;11.10;99.90
46458;DHT22;32155;54.076;12.092;2022-10-23T06:45:33;11.00;99.90
46458;DHT22;32155;54.076;12.092;2022-10-23T06:47:59;10.90;99.90
46458;DHT22;32155;54.076;12.092;2022-10-23T06:50:28;10.90;99.90
46458;DHT22;32155;54.076;12.092;2022-10-23T06:52:56;10.90;99.90
46458;DHT22;32155;54.076;12.092;2022-10-23T06:55:22;11.00;99.90
46458;DHT22;32155;54.076;12.092;2022-10-23T06:57:47;10.90;99.90
46458;DHT22;32155;54.076;12.092;2022-10-23T07:00:15;11.00;99.90
46458;DHT22;32155;54.076;12.092;2022-10-23T07:02:41;11.00;99.90
46458;DHT22;32155;54.076;12.092;2022-10-23T07:05:06;11.00;99.90
46458;DHT22;32155;54.076;12.092;2022-10-23T07:07:32;11.00;99.90
46458;DHT22;32155;54.076;12.092;2022-10-23T07:09:57;11.10;99.90
46458;DHT22;32155;54.076;12.092;2022-10-23T07:12:23;11.10;99.90
46458;DHT22;32155;54.076;12.092;2022-10-23T07:14:48;11.30;99.90
46458;DHT22;32155;54.076;12.092;2022-10-23T07:17:14;11.40;99.90
46458;DHT22;32155;54.076;12.092;2022-10-23T07:19:40;11.40;99.90
46458;DHT22;32155;54.076;12.092;2022-10-23T07:22:05;11.50;99.90
46458;DHT22;32155;54.076;12.092;2022-10-23T07:24:31;11.50;99.90
46458;DHT22;32155;54.076;12.092;2022-10-23T07:27:01;11.50;99.90
46458;DHT22;32155;54.076;12.092;2022-10-23T07:29:27;11.60;99.90
46458;DHT22;32155;54.076;12.092;2022-10-23T07:31:53;11.70;99.90
46458;DHT22;32155;54.076;12.092;2022-10-23T07:34:18;11.70;99.90
46458;DHT22;32155;54.076;12.092;2022-10-23T07:36:44;11.80;99.90
46458;DHT22;32155;54.076;12.092;2022-10-23T07:39:09;11.90;99.90
46458;DHT22;32155;54.076;12.092;2022-10-23T07:41:36;11.90;99.90
46458;DHT22;32155;54.076;12.092;2022-10-23T07:44:02;11.90;99.90
46458;DHT22;32155;54.076;12.092;2022-10-23T07:46:27;11.80;99.90
46458;DHT22;32155;54.076;12.092;2022-10-23T07:48:53;11.70;99.90
46458;DHT22;32155;54.076;12.092;2022-10-23T07:51:18;11.80;99.90
46458;DHT22;32155;54.076;12.092;2022-10-23T07:53:46;11.80;99.90
46458;DHT22;32155;54.076;12.092;2022-10-23T07:58:37;11.80;99.90
46458;DHT22;32155;54.076;12.092;2022-10-23T08:01:03;11.70;99.90
46458;DHT22;32155;54.076;12.092;2022-10-23T08:03:29;11.80;99.90
46458;DHT22;32155;54.076;12.092;2022-10-23T08:05:55;11.90;99.90
46458;DHT22;32155;54.076;12.092;2022-10-23T08:08:24;12.10;99.90
46458;DHT22;32155;54.076;12.092;2022-10-23T08:10:52;12.10;99.90
46458;DHT22;32155;54.076;12.092;2022-10-23T08:13:20;12.40;99.90
46458;DHT22;32155;54.076;12.092;2022-10-23T08:15:47;12.10;99.90
46458;DHT22;32155;54.076;12.092;2022-10-23T08:18:15;12.10;99.90
46458;DHT22;32155;54.076;12.092;2022-10-23T08:20:41;12.10;99.90
46458;DHT22;32155;54.076;12.092;2022-10-23T08:23:07;12.10;99.90
46458;DHT22;32155;54.076;12.092;2022-10-23T08:25:36;12.30;99.90
46458;DHT22;32155;54.076;12.092;2022-10-23T08:28:02;12.40;99.90
46458;DHT22;32155;54.076;12.092;2022-10-23T08:30:28;12.50;99.90
46458;DHT22;32155;54.076;12.092;2022-10-23T08:32:53;12.60;99.90
46458;DHT22;32155;54.076;12.092;2022-10-23T08:35:19;12.80;99.90
46458;DHT22;32155;54.076;12.092;2022-10-23T08:37:44;12.90;99.90
46458;DHT22;32155;54.076;12.092;2022-10-23T08:40:16;12.90;99.90
46458;DHT22;32155;54.076;12.092;2022-10-23T08:42:44;12.70;99.90
46458;DHT22;32155;54.076;12.092;2022-10-23T08:45:32;12.70;99.90
46458;DHT22;32155;54.076;12.092;2022-10-23T08:48:02;12.90;99.90
46458;DHT22;32155;54.076;12.092;2022-10-23T08:50:48;12.90;99.90
46458;DHT22;32155;54.076;12.092;2022-10-23T08:53:23;12.70;99.90
46458;DHT22;32155;54.076;12.092;2022-10-23T08:55:58;12.90;99.90
46458;DHT22;32155;54.076;12.092;2022-10-23T09:00:56;13.20;99.90
46458;DHT22;32155;54.076;12.092;2022-10-23T09:03:22;13.20;99.90
46458;DHT22;32155;54.076;12.092;2022-10-23T09:08:22;13.50;99.90
46458;DHT22;32155;54.076;12.092;2022-10-23T09:11:03;13.50;99.90
46458;DHT22;32155;54.076;12.092;2022-10-23T09:13:47;13.60;99.90
46458;DHT22;32155;54.076;12.092;2022-10-23T09:16:17;13.60;99.90
46458;DHT22;32155;54.076;12.092;2022-10-23T09:18:46;13.60;99.90
46458;DHT22;32155;54.076;12.092;2022-10-23T09:21:12;13.70;99.90
46458;DHT22;32155;54.076;12.092;2022-10-23T09:23:38;13.70;99.90
46458;DHT22;32155;54.076;12.092;2022-10-23T09:26:10;13.80;99.90
46458;DHT22;32155;54.076;12.092;2022-10-23T09:28:41;13.60;99.90
46458;DHT22;32155;54.076;12.092;2022-10-23T09:31:08;13.60;99.90
46458;DHT22;32155;54.076;12.092;2022-10-23T09:33:33;13.60;99.90
46458;DHT22;32155;54.076;12.092;2022-10-23T09:36:34;13.70;99.90
46458;DHT22;32155;54.076;12.092;2022-10-23T09:38:57;14.00;99.90
46458;DHT22;32155;54.076;12.092;2022-10-23T09:41:35;14.10;99.90
46458;DHT22;32155;54.076;12.092;2022-10-23T09:49:28;14.10;99.90
46458;DHT22;32155;54.076;12.092;2022-10-23T09:54:53;14.00;99.90
46458;DHT22;32155;54.076;12.092;2022-10-23T09:59:52;14.00;99.90
46458;DHT22;32155;54.076;12.092;2022-10-23T10:02:20;13.80;99.90
46458;DHT22;32155;54.076;12.092;2022-10-23T10:04:50;13.70;99.90
46458;DHT22;32155;54.076;12.092;2022-10-23T10:07:22;13.70;99.90
46458;DHT22;32155;54.076;12.092;2022-10-23T10:09:51;13.80;99.90
46458;DHT22;32155;54.076;12.092;2022-10-23T10:17:19;14.20;99.90
46458;DHT22;32155;54.076;12.092;2022-10-23T10:25:02;14.70;99.90
46458;DHT22;32155;54.076;12.092;2022-10-23T10:30:09;15.20;99.90
46458;DHT22;32155;54.076;12.092;2022-10-23T10:32:44;15.10;99.90
46458;DHT22;32155;54.076;12.092;2022-10-23T10:38:02;15.00;99.90
46458;DHT22;32155;54.076;12.092;2022-10-23T10:45:47;15.70;99.90
46458;DHT22;32155;54.076;12.092;2022-10-23T10:55:38;18.70;99.90
46458;DHT22;32155;54.076;12.092;2022-10-23T11:00:51;20.40;99.90
46458;DHT22;32155;54.076;12.092;2022-10-23T11:03:23;19.50;99.90
46458;DHT22;32155;54.076;12.092;2022-10-23T11:05:51;19.80;99.90
46458;DHT22;32155;54.076;12.092;2022-10-23T11:08:18;22.60;99.90
46458;DHT22;32155;54.076;12.092;2022-10-23T11:10:53;23.40;99.90
46458;DHT22;32155;54.076;12.092;2022-10-23T11:15:46;21.20;99.90
46458;DHT22;32155;54.076;12.092;2022-10-23T11:18:14;19.90;99.90
46458;DHT22;32155;54.076;12.092;2022-10-23T11:25:51;24.80;99.90
46458;DHT22;32155;54.076;12.092;2022-10-23T11:36:12;24.40;99.90
46458;DHT22;32155;54.076;12.092;2022-10-23T11:38:41;24.10;99.90
46458;DHT22;32155;54.076;12.092;2022-10-23T11:48:52;23.40;99.90
46458;DHT22;32155;54.076;12.092;2022-10-23T11:51:31;23.40;99.90
46458;DHT22;32155;54.076;12.092;2022-10-23T11:56:33;24.60;99.90
46458;DHT22;32155;54.076;12.092;2022-10-23T11:59:16;25.70;99.90
46458;DHT22;32155;54.076;12.092;2022-10-23T12:01:43;27.10;99.90
46458;DHT22;32155;54.076;12.092;2022-10-23T12:09:29;26.30;99.90
46458;DHT22;32155;54.076;12.092;2022-10-23T12:12:01;25.50;99.90
46458;DHT22;32155;54.076;12.092;2022-10-23T12:14:32;25.20;99.90
46458;DHT22;32155;54.076;12.092;2022-10-23T12:16:58;25.40;99.90
46458;DHT22;32155;54.076;12.092;2022-10-23T12:19:25;25.60;99.90
46458;DHT22;32155;54.076;12.092;2022-10-23T12:21:52;25.40;99.90
46458;DHT22;32155;54.076;12.092;2022-10-23T12:26:59;25.00;99.90
46458;DHT22;32155;54.076;12.092;2022-10-23T12:29:42;24.50;99.90
46458;DHT22;32155;54.076;12.092;2022-10-23T12:39:52;24.00;99.90
46458;DHT22;32155;54.076;12.092;2022-10-23T12:42:28;24.20;99.90
46458;DHT22;32155;54.076;12.092;2022-10-23T12:44:57;23.60;99.90
46458;DHT22;32155;54.076;12.092;2022-10-23T12:47:23;23.70;99.90
46458;DHT22;32155;54.076;12.092;2022-10-23T12:49:49;23.90;99.90
46458;DHT22;32155;54.076;12.092;2022-10-23T12:52:15;23.70;99.90
46458;DHT22;32155;54.076;12.092;2022-10-23T12:54:41;23.20;99.90
46458;DHT22;32155;54.076;12.092;2022-10-23T12:59:41;22.40;99.90
46458;DHT22;32155;54.076;12.092;2022-10-23T13:02:21;22.30;99.90
46458;DHT22;32155;54.076;12.092;2022-10-23T13:04:47;22.00;99.90
46458;DHT22;32155;54.076;12.092;2022-10-23T13:07:13;21.80;99.90
46458;DHT22;32155;54.076;12.092;2022-10-23T13:09:41;22.10;99.90
46458;DHT22;32155;54.076;12.092;2022-10-23T13:12:07;21.90;99.90
46458;DHT22;32155;54.076;12.092;2022-10-23T13:14:38;22.30;99.90
46458;DHT22;32155;54.076;12.092;2022-10-23T13:17:06;22.30;99.90
46458;DHT22;32155;54.076;12.092;2022-10-23T13:19:33;21.70;99.90
46458;DHT22;32155;54.076;12.092;2022-10-23T13:22:02;21.60;99.90
46458;DHT22;32155;54.076;12.092;2022-10-23T13:24:28;21.40;99.90
46458;DHT22;32155;54.076;12.092;2022-10-23T13:26:56;21.20;99.90
46458;DHT22;32155;54.076;12.092;2022-10-23T13:29:26;20.90;99.90
46458;DHT22;32155;54.076;12.092;2022-10-23T13:31:53;20.70;99.90
46458;DHT22;32155;54.076;12.092;2022-10-23T13:36:54;20.20;99.90
46458;DHT22;32155;54.076;12.092;2022-10-23T13:39:24;20.00;99.90
46458;DHT22;32155;54.076;12.092;2022-10-23T13:41:50;20.00;99.90
46458;DHT22;32155;54.076;12.092;2022-10-23T13:44:17;19.90;99.90
46458;DHT22;32155;54.076;12.092;2022-10-23T13:46:43;20.10;99.90
46458;DHT22;32155;54.076;12.092;2022-10-23T13:49:09;19.90;99.90
46458;DHT22;32155;54.076;12.092;2022-10-23T13:51:42;19.90;99.90
46458;DHT22;32155;54.076;12.092;2022-10-23T13:54:19;19.70;99.90
46458;DHT22;32155;54.076;12.092;2022-10-23T13:56:47;19.70;99.90
46458;DHT22;32155;54.076;12.092;2022-10-23T13:59:13;19.60;99.90
46458;DHT22;32155;54.076;12.092;2022-10-23T14:01:39;19.60;99.90
46458;DHT22;32155;54.076;12.092;2022-10-23T14:04:08;19.60;99.90
46458;DHT22;32155;54.076;12.092;2022-10-23T14:06:34;19.50;99.90
46458;DHT22;32155;54.076;12.092;2022-10-23T14:09:02;19.30;99.90
46458;DHT22;32155;54.076;12.092;2022-10-23T14:11:28;19.00;99.90
46458;DHT22;32155;54.076;12.092;2022-10-23T14:13:53;18.80;99.90
46458;DHT22;32155;54.076;12.092;2022-10-23T14:16:19;18.50;99.90
46458;DHT22;32155;54.076;12.092;2022-10-23T14:18:45;18.50;99.90
46458;DHT22;32155;54.076;12.092;2022-10-23T14:21:14;18.10;99.90
46458;DHT22;32155;54.076;12.092;2022-10-23T14:23:40;17.90;99.90
46458;DHT22;32155;54.076;12.092;2022-10-23T14:26:06;17.60;99.90
46458;DHT22;32155;54.076;12.092;2022-10-23T14:28:32;17.60;99.90
46458;DHT22;32155;54.076;12.092;2022-10-23T14:31:08;17.50;99.90
46458;DHT22;32155;54.076;12.092;2022-10-23T14:33:33;17.40;99.90
46458;DHT22;32155;54.076;12.092;2022-10-23T14:35:59;17.30;99.90
46458;DHT22;32155;54.076;12.092;2022-10-23T14:38:24;17.10;99.90
46458;DHT22;32155;54.076;12.092;2022-10-23T14:40:50;17.10;99.90
46458;DHT22;32155;54.076;12.092;2022-10-23T14:43:16;16.90;99.90
46458;DHT22;32155;54.076;12.092;2022-10-23T14:45:41;16.80;99.90
46458;DHT22;32155;54.076;12.092;2022-10-23T14:48:06;16.80;99.90
46458;DHT22;32155;54.076;12.092;2022-10-23T14:50:35;16.70;99.90
46458;DHT22;32155;54.076;12.092;2022-10-23T14:53:01;16.60;99.90
46458;DHT22;32155;54.076;12.092;2022-10-23T14:55:29;16.60;99.90
46458;DHT22;32155;54.076;12.092;2022-10-23T14:57:57;16.50;99.90
46458;DHT22;32155;54.076;12.092;2022-10-23T15:00:22;16.50;99.90
46458;DHT22;32155;54.076;12.092;2022-10-23T15:02:48;16.40;99.90
46458;DHT22;32155;54.076;12.092;2022-10-23T15:05:14;16.40;99.90
46458;DHT22;32155;54.076;12.092;2022-10-23T15:07:39;16.30;99.90
46458;DHT22;32155;54.076;12.092;2022-10-23T15:10:05;16.20;99.90
46458;DHT22;32155;54.076;12.092;2022-10-23T15:12:31;16.10;99.90
46458;DHT22;32155;54.076;12.092;2022-10-23T15:14:56;16.00;99.90
46458;DHT22;32155;54.076;12.092;2022-10-23T15:17:22;16.10;99.90
46458;DHT22;32155;54.076;12.092;2022-10-23T15:19:47;16.00;99.90
46458;DHT22;32155;54.076;12.092;2022-10-23T15:22:13;15.90;99.90
46458;DHT22;32155;54.076;12.092;2022-10-23T15:24:41;15.90;99.90
46458;DHT22;32155;54.076;12.092;2022-10-23T15:27:06;15.80;99.90
46458;DHT22;32155;54.076;12.092;2022-10-23T15:29:32;15.80;99.90
46458;DHT22;32155;54.076;12.092;2022-10-23T15:32:00;15.70;99.90
46458;DHT22;32155;54.076;12.092;2022-10-23T15:34:26;15.70;99.90
46458;DHT22;32155;54.076;12.092;2022-10-23T15:36:52;15.60;99.90
46458;DHT22;32155;54.076;12.092;2022-10-23T15:39:22;15.60;99.90
46458;DHT22;32155;54.076;12.092;2022-10-23T15:41:49;15.60;99.90
46458;DHT22;32155;54.076;12.092;2022-10-23T15:44:15;15.50;99.90
46458;DHT22;32155;54.076;12.092;2022-10-23T15:46:41;15.40;99.90
46458;DHT22;32155;54.076;12.092;2022-10-23T15:49:07;15.40;99.90
46458;DHT22;32155;54.076;12.092;2022-10-23T15:51:33;15.40;99.90
46458;DHT22;32155;54.076;12.092;2022-10-23T15:53:58;15.30;99.90
46458;DHT22;32155;54.076;12.092;2022-10-23T15:56:24;15.20;99.90
46458;DHT22;32155;54.076;12.092;2022-10-23T15:58:50;15.20;99.90
46458;DHT22;32155;54.076;12.092;2022-10-23T16:01:15;15.20;99.90
46458;DHT22;32155;54.076;12.092;2022-10-23T16:03:41;15.20;99.90
46458;DHT22;32155;54.076;12.092;2022-10-23T16:06:07;15.10;99.90
46458;DHT22;32155;54.076;12.092;2022-10-23T16:08:33;15.10;99.90
46458;DHT22;32155;54.076;12.092;2022-10-23T16:11:02;15.00;99.90
46458;DHT22;32155;54.076;12.092;2022-10-23T16:13:27;15.00;99.90
46458;DHT22;32155;54.076;12.092;2022-10-23T16:15:53;15.00;99.90
46458;DHT22;32155;54.076;12.092;2022-10-23T16:18:19;15.00;99.90
46458;DHT22;32155;54.076;12.092;2022-10-23T16:20:45;15.00;99.90
46458;DHT22;32155;54.076;12.092;2022-10-23T16:23:15;14.90;99.90
46458;DHT22;32155;54.076;12.092;2022-10-23T16:25:40;14.90;99.90
46458;DHT22;32155;54.076;12.092;2022-10-23T16:28:08;14.90;99.90
46458;DHT22;32155;54.076;12.092;2022-10-23T16:30:38;14.90;99.90
46458;DHT22;32155;54.076;12.092;2022-10-23T16:33:04;14.80;99.90
46458;DHT22;32155;54.076;12.092;2022-10-23T16:35:29;14.80;99.90
46458;DHT22;32155;54.076;12.092;2022-10-23T16:37:58;14.80;99.90
46458;DHT22;32155;54.076;12.092;2022-10-23T16:40:25;14.70;99.90
46458;DHT22;32155;54.076;12.092;2022-10-23T16:42:51;14.70;99.90
46458;DHT22;32155;54.076;12.092;2022-10-23T16:45:19;14.60;99.90
46458;DHT22;32155;54.076;12.092;2022-10-23T16:47:49;14.60;99.90
46458;DHT22;32155;54.076;12.092;2022-10-23T16:50:15;14.60;99.90
46458;DHT22;32155;54.076;12.092;2022-10-23T16:52:40;14.60;99.90
46458;DHT22;32155;54.076;12.092;2022-10-23T16:55:06;14.50;99.90
46458;DHT22;32155;54.076;12.092;2022-10-23T16:57:33;14.50;99.90
46458;DHT22;32155;54.076;12.092;2022-10-23T16:59:58;14.50;99.90
46458;DHT22;32155;54.076;12.092;2022-10-23T17:02:26;14.40;99.90
46458;DHT22;32155;54.076;12.092;2022-10-23T17:04:54;14.40;99.90
46458;DHT22;32155;54.076;12.092;2022-10-23T17:07:20;14.40;99.90
46458;DHT22;32155;54.076;12.092;2022-10-23T17:09:47;14.40;99.90
46458;DHT22;32155;54.076;12.092;2022-10-23T17:12:13;14.30;99.90
46458;DHT22;32155;54.076;12.092;2022-10-23T17:14:46;14.30;99.90
46458;DHT22;32155;54.076;12.092;2022-10-23T17:17:12;14.20;99.90
46458;DHT22;32155;54.076;12.092;2022-10-23T17:19:37;14.20;99.90
46458;DHT22;32155;54.076;12.092;2022-10-23T17:22:05;14.20;99.90
46458;DHT22;32155;54.076;12.092;2022-10-23T17:24:36;14.20;99.90
46458;DHT22;32155;54.076;12.092;2022-10-23T17:27:01;14.20;99.90